Time;durP1;ratioP1;P1;durP2;ratioP2;P2;SDS_P1;SDS_P2;PMS_P1;PMS_P2;Temp;Humidity;BMP_temperature;BMP_pressure;BME280_temperature;BME280_humidity;BME280_pressure;Samples;Min_cycle;Max_cycle;Signal;HPM_P1;HPM_P2
2022/04/24 00:02:27;;;;;;;18.05;11.48;;;;;;;-139.48;100.00;61774.03;4992635;28;20057;-70
2022/04/24 00:05:11;;;;;;;17.20;11.90;;;;;;;-139.48;100.00;61774.03;4993766;28;20054;-70
2022/04/24 00:07:55;;;;;;;16.98;11.57;;;;;;;-139.48;100.00;61774.03;4992771;28;20049;-70
2022/04/24 00:10:39;;;;;;;16.65;12.43;;;;;;;-139.48;100.00;61774.03;4992474;28;20133;-70
2022/04/24 00:13:23;;;;;;;16.25;10.95;;;;;;;-139.48;100.00;61774.03;4992675;28;20053;-70
2022/04/24 00:16:11;;;;;;;15.65;10.85;;;;;;;-139.48;100.00;61774.03;4992395;28;20509;-70
2022/04/24 00:18:55;;;;;;;18.40;11.45;;;;;;;-139.48;100.00;61774.03;4993292;28;20506;-70
2022/04/24 00:21:39;;;;;;;17.77;12.27;;;;;;;-139.48;100.00;61774.03;4993631;28;20048;-70
2022/04/24 00:24:24;;;;;;;13.98;11.70;;;;;;;-139.48;100.00;61774.03;4996127;28;20045;-70
2022/04/24 00:27:09;;;;;;;18.33;12.02;;;;;;;-139.48;100.00;61774.03;4996255;28;20049;-69
2022/04/24 00:29:53;;;;;;;14.45;11.43;;;;;;;-139.48;100.00;61774.03;4995814;28;20054;-70
2022/04/24 00:32:37;;;;;;;17.90;11.05;;;;;;;-139.48;100.00;61774.03;4996394;28;20092;-70
2022/04/24 00:35:21;;;;;;;20.10;12.05;;;;;;;-139.48;100.00;61774.03;4996091;28;20182;-70
2022/04/24 00:38:05;;;;;;;19.98;12.00;;;;;;;-139.48;100.00;61774.03;4996814;28;20053;-70
2022/04/24 00:40:49;;;;;;;20.52;11.38;;;;;;;-139.48;100.00;61774.03;4996509;28;20525;-70
2022/04/24 00:43:32;;;;;;;14.20;11.05;;;;;;;-139.48;100.00;61774.03;4996944;28;20045;-70
2022/04/24 00:46:28;;;;;;;12.85;10.18;;;;;;;-139.48;100.00;61774.03;4996698;28;20101;-70
2022/04/24 00:49:13;;;;;;;15.45;11.60;;;;;;;-139.48;100.00;61774.03;4995811;28;20089;-70
2022/04/24 00:51:57;;;;;;;14.48;11.00;;;;;;;-139.48;100.00;61774.03;4996819;28;20497;-70
2022/04/24 00:54:41;;;;;;;14.07;11.25;;;;;;;-139.48;100.00;61774.03;4995760;28;20054;-70
2022/04/24 00:57:25;;;;;;;13.98;11.38;;;;;;;-139.48;100.00;61774.03;4995649;28;20080;-70
2022/04/24 01:00:09;;;;;;;15.70;11.02;;;;;;;-139.48;100.00;61774.03;4995773;28;20093;-70
2022/04/24 01:02:55;;;;;;;15.30;10.70;;;;;;;-139.48;100.00;61774.03;4996600;28;20048;-70
2022/04/24 01:05:39;;;;;;;12.05;9.65;;;;;;;-139.48;100.00;61774.03;4996779;28;20056;-70
2022/04/24 01:08:23;;;;;;;12.35;9.88;;;;;;;-139.48;100.00;61774.03;4995529;28;20052;-70
2022/04/24 01:11:07;;;;;;;14.52;11.25;;;;;;;-139.48;100.00;61774.03;4981705;28;20138;-70
2022/04/24 01:13:50;;;;;;;13.35;10.00;;;;;;;-139.48;100.00;61774.03;4995168;28;20050;-70
2022/04/24 01:16:35;;;;;;;13.55;10.10;;;;;;;-139.48;100.00;61774.03;4996403;28;20077;-70
2022/04/24 01:19:19;;;;;;;14.88;11.07;;;;;;;-139.48;100.00;61774.03;4996204;28;21834;-70
2022/04/24 01:22:04;;;;;;;14.20;11.05;;;;;;;-139.48;100.00;61774.03;4996101;28;20505;-70
2022/04/24 01:24:48;;;;;;;13.23;9.75;;;;;;;-139.48;100.00;61774.03;4996210;28;20053;-70
2022/04/24 01:27:32;;;;;;;12.82;10.20;;;;;;;-139.48;100.00;61774.03;4996394;28;20501;-70
2022/04/24 01:30:16;;;;;;;14.07;10.43;;;;;;;-139.48;100.00;61774.03;4994759;28;20130;-70
2022/04/24 01:33:00;;;;;;;12.48;9.82;;;;;;;-139.48;100.00;61774.03;4995154;28;20058;-70
2022/04/24 01:35:44;;;;;;;14.70;10.50;;;;;;;-139.48;100.00;61774.03;4994468;28;20052;-70
2022/04/24 01:38:31;;;;;;;13.02;10.00;;;;;;;-139.48;100.00;61774.03;4995753;28;20103;-70
2022/04/24 01:41:15;;;;;;;12.63;9.15;;;;;;;-139.48;100.00;61774.03;4995742;28;20057;-70
2022/04/24 01:43:59;;;;;;;12.85;10.07;;;;;;;-139.48;100.00;61774.03;4995908;28;20045;-70
2022/04/24 01:46:43;;;;;;;12.93;10.50;;;;;;;-139.48;100.00;61774.03;4994534;28;20052;-70
2022/04/24 01:49:27;;;;;;;14.18;9.98;;;;;;;-139.48;100.00;61774.03;4994647;28;20045;-70
2022/04/24 01:52:11;;;;;;;12.50;9.80;;;;;;;-139.48;100.00;61774.03;4994449;28;20050;-70
2022/04/24 01:54:55;;;;;;;12.63;9.60;;;;;;;-139.48;100.00;61774.03;4995465;28;20184;-70
2022/04/24 01:57:39;;;;;;;13.02;9.75;;;;;;;-139.48;100.00;61774.03;4995516;28;20050;-70
2022/04/24 02:00:23;;;;;;;13.93;10.15;;;;;;;-139.48;100.00;61774.03;4980980;28;20501;-70
2022/04/24 02:03:07;;;;;;;11.85;9.48;;;;;;;-139.48;100.00;61774.03;4994418;28;20481;-70
2022/04/24 02:05:51;;;;;;;14.38;9.25;;;;;;;-139.48;100.00;61774.03;4995190;28;20053;-70
2022/04/24 02:08:36;;;;;;;11.98;9.57;;;;;;;-139.48;100.00;61774.03;4995340;28;20099;-70
2022/04/24 02:11:20;;;;;;;14.52;9.82;;;;;;;-139.48;100.00;61774.03;4993962;28;20181;-70
2022/04/24 02:14:04;;;;;;;12.48;9.85;;;;;;;-139.48;100.00;61774.03;4994061;28;20048;-70
2022/04/24 02:16:48;;;;;;;14.88;9.73;;;;;;;-139.48;100.00;61774.03;4994961;28;20125;-70
2022/04/24 02:19:31;;;;;;;12.45;10.23;;;;;;;-139.48;100.00;61774.03;4995016;28;20479;-70
2022/04/24 02:22:16;;;;;;;13.65;10.27;;;;;;;-139.48;100.00;61774.03;4995022;28;20058;-70
2022/04/24 02:25:00;;;;;;;13.40;10.23;;;;;;;-139.48;100.00;61774.03;4995091;28;20056;-70
2022/04/24 02:27:44;;;;;;;12.23;9.77;;;;;;;-139.48;100.00;61774.03;4993999;28;20517;-70
2022/04/24 02:30:29;;;;;;;12.40;9.90;;;;;;;-139.48;100.00;61774.03;4994755;28;20053;-70
2022/04/24 02:33:13;;;;;;;13.52;10.07;;;;;;;-139.48;100.00;61774.03;4994953;28;20088;-70
2022/04/24 02:35:56;;;;;;;14.45;10.05;;;;;;;-139.48;100.00;61774.03;4980236;28;20081;-70
2022/04/24 02:38:41;;;;;;;14.23;8.82;;;;;;;-139.48;100.00;61774.03;4994975;28;20471;-70
2022/04/24 02:41:27;;;;;;;13.75;10.60;;;;;;;-139.48;100.00;61774.03;4994364;28;20052;-70
2022/04/24 02:44:11;;;;;;;13.85;10.57;;;;;;;-139.48;100.00;61774.03;4993736;28;20057;-70
2022/04/24 02:46:55;;;;;;;12.40;9.82;;;;;;;-139.48;100.00;61774.03;4979207;28;20099;-70
2022/04/24 02:49:39;;;;;;;17.77;10.02;;;;;;;-139.48;100.00;61774.03;4994646;28;20405;-70
2022/04/24 02:52:23;;;;;;;13.15;10.27;;;;;;;-139.48;100.00;61774.03;4994640;28;20053;-70
2022/04/24 02:55:07;;;;;;;11.68;9.68;;;;;;;-139.48;100.00;61774.03;4993575;28;20461;-70
2022/04/24 02:57:51;;;;;;;16.13;11.38;;;;;;;-139.48;100.00;61774.03;4979561;28;20475;-70
2022/04/24 03:00:49;;;;;;;14.20;10.20;;;;;;;-139.48;100.00;61774.03;4994111;28;20057;-70
2022/04/24 03:03:33;;;;;;;11.88;9.55;;;;;;;-139.48;100.00;61774.03;4994454;28;20048;-70
2022/04/24 03:06:17;;;;;;;18.23;11.10;;;;;;;-139.48;100.00;61774.03;4979714;28;20049;-70
2022/04/24 03:09:01;;;;;;;12.20;9.98;;;;;;;-139.48;100.00;61774.03;4994019;28;20118;-70
2022/04/24 03:11:45;;;;;;;14.10;10.68;;;;;;;-139.48;100.00;61774.03;4993329;28;20570;-70
2022/04/24 03:14:29;;;;;;;12.48;10.25;;;;;;;-139.48;100.00;61774.03;4993099;28;20049;-70
2022/04/24 03:17:13;;;;;;;13.65;9.63;;;;;;;-139.48;100.00;61774.03;4993154;28;20181;-70
2022/04/24 03:19:57;;;;;;;14.27;10.85;;;;;;;-139.48;100.00;61774.03;4994050;28;20060;-70
2022/04/24 03:22:41;;;;;;;14.40;11.05;;;;;;;-139.48;100.00;61774.03;4994239;28;20137;-70
2022/04/24 03:25:25;;;;;;;16.02;10.80;;;;;;;-139.48;100.00;61774.03;4993895;28;20129;-70
2022/04/24 03:28:09;;;;;;;12.15;9.77;;;;;;;-139.48;100.00;61774.03;4993164;28;20049;-70
2022/04/24 03:30:53;;;;;;;13.40;10.70;;;;;;;-139.48;100.00;61774.03;4992806;28;20414;-70
2022/04/24 03:33:37;;;;;;;;;;;;;;;-139.48;100.00;61774.03;4993263;28;20049;-70
2022/04/24 03:36:21;;;;;;;13.32;10.68;;;;;;;-139.48;100.00;61774.03;4994089;28;20052;-70
2022/04/24 03:39:04;;;;;;;14.50;10.63;;;;;;;-139.48;100.00;61774.03;4993595;28;20458;-70
2022/04/24 03:41:48;;;;;;;12.98;10.45;;;;;;;-139.48;100.00;61774.03;4994059;28;20050;-70
2022/04/24 03:44:33;;;;;;;14.98;11.05;;;;;;;-139.48;100.00;61774.03;4993047;28;20056;-70
2022/04/24 03:47:18;;;;;;;13.98;11.00;;;;;;;-139.48;100.00;61774.03;4992925;28;20406;-70
2022/04/24 03:50:03;;;;;;;13.30;10.57;;;;;;;-139.48;100.00;61774.03;4993899;28;20057;-70
2022/04/24 03:52:47;;;;;;;18.67;11.00;;;;;;;-139.48;100.00;61774.03;4992887;28;20058;-70
2022/04/24 03:55:31;;;;;;;13.38;10.35;;;;;;;-139.48;100.00;61774.03;4992981;28;20053;-70
2022/04/24 03:58:15;;;;;;;13.70;10.48;;;;;;;-139.48;100.00;61774.03;4994733;28;20045;-70
2022/04/24 04:00:59;;;;;;;11.95;10.45;;;;;;;-139.48;100.00;61774.03;4997763;28;20170;-70
2022/04/24 04:03:43;;;;;;;16.00;11.05;;;;;;;-139.48;100.00;61774.03;4997537;28;20177;-70
2022/04/24 04:06:27;;;;;;;13.02;10.10;;;;;;;-139.48;100.00;61774.03;4996420;28;20053;-70
2022/04/24 04:09:11;;;;;;;12.52;9.63;;;;;;;-139.48;100.00;61774.03;4996503;28;20042;-70
2022/04/24 04:11:55;;;;;;;14.95;11.35;;;;;;;-139.48;100.00;61774.03;4996795;28;20129;-70
2022/04/24 04:14:39;;;;;;;14.35;10.90;;;;;;;-139.48;100.00;61774.03;4997548;28;20049;-70
2022/04/24 04:17:23;;;;;;;14.20;11.00;;;;;;;-139.48;100.00;61774.03;4996370;28;20073;-70
2022/04/24 04:20:11;;;;;;;14.55;11.02;;;;;;;-139.48;100.00;61774.03;4997046;28;20069;-70
2022/04/24 04:22:55;;;;;;;15.25;10.68;;;;;;;-139.48;100.00;61774.03;4997367;28;20049;-70
2022/04/24 04:25:39;;;;;;;13.98;11.48;;;;;;;-139.48;100.00;61774.03;4997003;28;20050;-70
2022/04/24 04:28:23;;;;;;;14.05;10.57;;;;;;;-139.48;100.00;61774.03;4997031;28;20177;-70
2022/04/24 04:31:07;;;;;;;13.48;10.95;;;;;;;-139.48;100.00;61774.03;4996158;28;20129;-70
2022/04/24 04:33:51;;;;;;;14.23;11.77;;;;;;;-139.48;100.00;61774.03;4982729;28;20057;-70
2022/04/24 04:36:35;;;;;;;16.25;11.73;;;;;;;-139.48;100.00;61774.03;4997097;28;20049;-70
2022/04/24 04:39:20;;;;;;;15.32;12.10;;;;;;;-139.48;100.00;61774.03;4996885;28;20529;-70
2022/04/24 04:42:04;;;;;;;15.30;10.85;;;;;;;-139.48;100.00;61774.03;4995994;28;20505;-70
2022/04/24 04:44:48;;;;;;;15.95;11.20;;;;;;;-139.48;100.00;61774.03;4997015;28;20053;-70
2022/04/24 04:47:32;;;;;;;17.02;12.02;;;;;;;-139.48;100.00;61774.03;4995621;28;20096;-70
2022/04/24 04:50:16;;;;;;;17.88;12.40;;;;;;;-139.48;100.00;61774.03;4996496;28;20081;-70
2022/04/24 04:53:00;;;;;;;15.55;12.35;;;;;;;-139.48;100.00;61774.03;4996570;28;20057;-70
2022/04/24 04:55:44;;;;;;;19.33;13.40;;;;;;;-139.48;100.00;61774.03;4996691;28;20508;-70
2022/04/24 04:58:29;;;;;;;16.77;11.85;;;;;;;-139.48;100.00;61774.03;4995639;28;20104;-70
2022/04/24 05:01:13;;;;;;;16.10;12.25;;;;;;;-139.48;100.00;61774.03;4995576;28;20555;-70
2022/04/24 05:03:58;;;;;;;16.15;12.07;;;;;;;-139.48;100.00;61774.03;4995304;28;20072;-70
2022/04/24 05:06:42;;;;;;;16.92;13.15;;;;;;;-139.48;100.00;61774.03;4996531;28;20458;-70
2022/04/24 05:09:26;;;;;;;16.95;12.07;;;;;;;-139.48;100.00;61774.03;4995194;28;20044;-70
2022/04/24 05:12:10;;;;;;;17.42;13.38;;;;;;;-139.48;100.00;61774.03;4995186;28;20053;-70
2022/04/24 05:15:05;;;;;;;15.90;11.82;;;;;;;-139.48;100.00;61774.03;4996163;28;20177;-70
2022/04/24 05:17:49;;;;;;;16.70;12.15;;;;;;;-139.48;100.00;61774.03;4995322;28;20509;-70
2022/04/24 05:20:33;;;;;;;15.75;12.32;;;;;;;-139.48;100.00;61774.03;4995044;28;20049;-70
2022/04/24 05:23:17;;;;;;;15.25;11.95;;;;;;;-139.48;100.00;61774.03;4996065;28;20057;-70
2022/04/24 05:26:01;;;;;;;16.58;11.90;;;;;;;-139.48;100.00;61774.03;4996260;28;20136;-70
2022/04/24 05:28:45;;;;;;;16.10;11.57;;;;;;;-139.48;100.00;61774.03;4995014;28;20504;-70
2022/04/24 05:31:30;;;;;;;17.45;12.50;;;;;;;-139.48;100.00;61774.03;4994846;28;20104;-69
2022/04/24 05:34:14;;;;;;;14.45;11.63;;;;;;;-139.48;100.00;61774.03;4995088;28;20049;-70
2022/04/24 05:36:58;;;;;;;16.45;11.30;;;;;;;-139.48;100.00;61774.03;4994801;28;20096;-70
2022/04/24 05:39:41;;;;;;;16.60;11.77;;;;;;;-139.48;100.00;61774.03;4994461;28;20077;-70
2022/04/24 05:42:25;;;;;;;13.88;10.65;;;;;;;-139.48;100.00;61774.03;4994882;28;20072;-70
2022/04/24 05:45:14;;;;;;;13.35;10.60;;;;;;;-139.48;100.00;61774.03;4994839;28;20410;-70
2022/04/24 05:47:59;;;;;;;16.13;10.82;;;;;;;-139.48;100.00;61774.03;4994524;28;20458;-70
2022/04/24 05:50:43;;;;;;;17.92;11.90;;;;;;;-139.48;100.00;61774.03;4995653;28;20128;-70
2022/04/24 05:53:26;;;;;;;18.75;13.40;;;;;;;-139.48;100.00;61774.03;4994829;28;20537;-70
2022/04/24 05:56:11;;;;;;;18.13;14.57;;;;;;;-139.48;100.00;61774.03;4995455;28;20073;-70
2022/04/24 05:58:55;;;;;;;24.08;16.02;;;;;;;-139.48;100.00;61774.03;4995510;28;20077;-69
2022/04/24 06:01:39;;;;;;;22.42;14.73;;;;;;;-139.48;100.00;61774.03;4994544;28;20057;-70
2022/04/24 06:04:23;;;;;;;23.77;15.98;;;;;;;-139.48;100.00;61774.03;4994174;28;20057;-69
2022/04/24 06:07:06;;;;;;;17.98;11.85;;;;;;;-139.48;100.00;61774.03;4994396;28;20049;-69
2022/04/24 06:09:51;;;;;;;9.25;5.70;;;;;;;-139.48;100.00;61774.03;4995324;28;20101;-69
2022/04/24 06:12:47;;;;;;;4.93;3.70;;;;;;;-139.48;100.00;61774.03;4994241;28;20049;-69
2022/04/24 06:15:31;;;;;;;6.82;3.47;;;;;;;-139.48;100.00;61774.03;4995291;28;20080;-69
2022/04/24 06:18:16;;;;;;;2.72;1.98;;;;;;;-139.48;100.00;61774.03;4994120;28;20053;-69
2022/04/24 06:21:00;;;;;;;3.33;2.00;;;;;;;-139.48;100.00;61774.03;4994684;28;20049;-69
2022/04/24 06:23:44;;;;;;;4.18;2.35;;;;;;;-139.48;100.00;61774.03;4995135;28;20093;-69
2022/04/24 06:26:28;;;;;;;2.50;2.03;;;;;;;-139.48;100.00;61774.03;4993870;28;20053;-69
2022/04/24 06:29:12;;;;;;;2.70;1.55;;;;;;;-139.48;100.00;61774.03;4994674;28;20053;-70
2022/04/24 06:31:56;;;;;;;1.58;1.40;;;;;;;-139.48;100.00;61774.03;4993952;28;20089;-70
2022/04/24 06:34:40;;;;;;;1.73;1.45;;;;;;;-139.48;100.00;61774.03;4995214;28;20127;-70
2022/04/24 06:37:24;;;;;;;1.17;1.02;;;;;;;-139.48;100.00;61774.03;4994819;28;20061;-69
2022/04/24 06:40:10;;;;;;;2.08;1.30;;;;;;;-139.48;100.00;61774.03;4994367;28;20069;-70
2022/04/24 06:43:00;;;;;;;2.92;1.10;;;;;;;-139.48;100.00;61774.03;4993505;28;20053;-70
2022/04/24 06:45:44;;;;;;;6.35;0.90;;;;;;;-139.48;100.00;61774.03;4994685;28;20057;-70
2022/04/24 06:48:28;;;;;;;1.10;1.00;;;;;;;-139.48;100.00;61774.03;4994510;28;20510;-70
2022/04/24 06:51:12;;;;;;;2.90;0.80;;;;;;;-139.48;100.00;61774.03;4979646;28;20057;-70
2022/04/24 06:53:56;;;;;;;2.92;1.20;;;;;;;-139.48;100.00;61774.03;4994372;28;20049;-70
2022/04/24 06:56:40;;;;;;;1.33;1.02;;;;;;;-139.48;100.00;61774.03;4994451;28;20053;-70
2022/04/24 06:59:23;;;;;;;0.95;0.85;;;;;;;-139.48;100.00;61774.03;4994386;28;20053;-70
2022/04/24 07:02:07;;;;;;;2.00;1.10;;;;;;;-139.48;100.00;61774.03;4993475;28;20134;-70
2022/04/24 07:04:51;;;;;;;1.55;1.10;;;;;;;-139.48;100.00;61774.03;4979743;28;20129;-70
2022/04/24 07:07:35;;;;;;;1.40;1.30;;;;;;;-139.48;100.00;61774.03;4979394;28;20472;-70
2022/04/24 07:10:19;;;;;;;4.82;1.30;;;;;;;-139.48;100.00;61774.03;4993188;28;20045;-70
2022/04/24 07:13:04;;;;;;;5.50;1.52;;;;;;;-139.48;100.00;61774.03;4993306;28;20092;-70
2022/04/24 07:15:47;;;;;;;2.75;1.20;;;;;;;-139.48;100.00;61774.03;4992965;28;20137;-70
2022/04/24 07:18:31;;;;;;;1.45;1.08;;;;;;;-139.48;100.00;61774.03;4994189;28;20590;-70
2022/04/24 07:21:15;;;;;;;3.70;1.00;;;;;;;-139.48;100.00;61774.03;4994142;28;20509;-70
2022/04/24 07:23:59;;;;;;;2.58;1.13;;;;;;;-139.48;100.00;61774.03;4992913;28;20073;-70
2022/04/24 07:26:43;;;;;;;4.10;1.40;;;;;;;-139.48;100.00;61774.03;4994148;28;20096;-70
2022/04/24 07:29:27;;;;;;;;;;;;;;;-139.48;100.00;61774.03;4994451;28;20088;-70
2022/04/24 07:32:11;;;;;;;2.40;1.30;;;;;;;-139.48;100.00;61774.03;4993311;28;19921;-70
2022/04/24 07:34:55;;;;;;;1.70;1.60;;;;;;;-139.48;100.00;61774.03;4994127;28;20049;-70
2022/04/24 07:37:39;;;;;;;1.95;1.45;;;;;;;-139.48;100.00;61774.03;4993990;28;20097;-70
2022/04/24 07:40:28;;;;;;;4.35;1.63;;;;;;;-139.48;100.00;61774.03;4993805;28;20133;-70
2022/04/24 07:43:13;;;;;;;3.05;1.90;;;;;;;-139.48;100.00;61774.03;4993064;28;20145;-70
2022/04/24 07:45:57;;;;;;;3.55;1.80;;;;;;;-139.48;100.00;61774.03;4993962;28;20049;-70
2022/04/24 07:48:41;;;;;;;3.28;1.83;;;;;;;-139.48;100.00;61774.03;4992908;28;20168;-70
2022/04/24 07:51:25;;;;;;;3.22;1.58;;;;;;;-139.48;100.00;61774.03;4992934;28;20052;-70
2022/04/24 07:54:09;;;;;;;8.02;2.33;;;;;;;-139.48;100.00;61774.03;4993656;28;20103;-70
2022/04/24 07:56:53;;;;;;;4.28;2.03;;;;;;;-139.48;100.00;61774.03;4993654;28;20113;-70
2022/04/24 07:59:37;;;;;;;3.28;2.22;;;;;;;-139.48;100.00;61774.03;4992538;28;20072;-70
2022/04/24 08:02:20;;;;;;;4.15;2.70;;;;;;;-139.48;100.00;61774.03;4992812;28;20076;-70
2022/04/24 08:05:05;;;;;;;5.28;1.90;;;;;;;-139.48;100.00;61774.03;4993100;28;20057;-70
2022/04/24 08:07:49;;;;;;;6.68;2.15;;;;;;;-139.48;100.00;61774.03;4992624;28;20105;-70
2022/04/24 08:10:35;;;;;;;2.53;2.08;;;;;;;-139.48;100.00;61774.03;4992458;28;20056;-70
2022/04/24 08:13:19;;;;;;;5.30;2.20;;;;;;;-139.48;100.00;61774.03;4992784;28;20053;-70
2022/04/24 08:16:04;;;;;;;9.50;2.05;;;;;;;-139.48;100.00;61774.03;4992579;28;20525;-70
2022/04/24 08:18:48;;;;;;;2.47;2.00;;;;;;;-139.48;100.00;61774.03;4992662;28;20045;-70
2022/04/24 08:21:32;;;;;;;3.65;2.13;;;;;;;-139.48;100.00;61774.03;4992393;28;20052;-69
2022/04/24 08:24:16;;;;;;;2.40;2.17;;;;;;;-139.48;100.00;61774.03;4993482;28;20417;-70
2022/04/24 08:27:00;;;;;;;5.50;1.92;;;;;;;-139.48;100.00;61774.03;4978708;28;20125;-70
2022/04/24 08:29:44;;;;;;;2.58;2.00;;;;;;;-139.48;100.00;61774.03;4992795;28;20394;-70
2022/04/24 08:32:28;;;;;;;5.88;1.90;;;;;;;-139.48;100.00;61774.03;4993375;28;20049;-70
2022/04/24 08:35:13;;;;;;;4.55;2.20;;;;;;;-139.48;100.00;61774.03;4993620;28;20054;-70
2022/04/24 08:37:58;;;;;;;3.85;2.33;;;;;;;-139.48;100.00;61774.03;4992211;28;20053;-70
2022/04/24 08:40:42;;;;;;;3.70;2.22;;;;;;;-139.48;100.00;61774.03;4992073;28;20057;-70
2022/04/24 08:43:26;;;;;;;2.00;1.80;;;;;;;-139.48;100.00;61774.03;4992216;28;20053;-70
2022/04/24 08:46:10;;;;;;;3.80;2.42;;;;;;;-139.48;100.00;61774.03;4981769;28;20100;-70
2022/04/24 08:48:54;;;;;;;2.63;1.90;;;;;;;-139.48;100.00;61774.03;4996913;28;20537;-70
2022/04/24 08:51:39;;;;;;;6.90;2.72;;;;;;;-139.48;100.00;61774.03;4995824;28;20064;-70
2022/04/24 08:54:26;;;;;;;5.25;2.20;;;;;;;-139.48;100.00;61774.03;4996785;28;20410;-70
2022/04/24 08:57:11;;;;;;;2.85;2.10;;;;;;;-139.48;100.00;61774.03;4996031;28;20088;-70
2022/04/24 08:59:59;;;;;;;2.97;1.90;;;;;;;-139.48;100.00;61774.03;4995373;28;20150;-70
2022/04/24 09:02:43;;;;;;;2.20;1.70;;;;;;;-139.48;100.00;61774.03;4995716;28;20049;-70
2022/04/24 09:05:30;;;;;;;2.08;1.88;;;;;;;-139.48;100.00;61774.03;4995353;28;20457;-70
2022/04/24 09:08:15;;;;;;;4.05;2.08;;;;;;;-139.48;100.00;61774.03;4996816;28;20053;-70
2022/04/24 09:10:59;;;;;;;2.78;2.15;;;;;;;-139.48;100.00;61774.03;4995219;28;20069;-70
2022/04/24 09:16:48;;;;;;;6.80;2.03;;;;;;;-139.48;100.00;61774.03;4995711;28;20049;-70
2022/04/24 09:19:33;;;;;;;2.53;2.00;;;;;;;-139.48;100.00;61774.03;4994899;28;20069;-70
2022/04/24 09:22:17;;;;;;;3.05;1.88;;;;;;;-139.48;100.00;61774.03;4995252;28;20057;-70
2022/04/24 09:25:01;;;;;;;3.75;2.17;;;;;;;-139.48;100.00;61774.03;4996285;28;20053;-70
2022/04/24 09:27:52;;;;;;;2.70;2.10;;;;;;;-139.48;100.00;61774.03;4994964;28;20097;-71
2022/04/24 09:30:36;;;;;;;7.05;2.40;;;;;;;-139.48;100.00;61774.03;4995187;28;20057;-70
2022/04/24 09:33:20;;;;;;;6.32;1.88;;;;;;;-139.48;100.00;61774.03;4995134;28;20573;-70
2022/04/24 09:36:05;;;;;;;3.45;2.03;;;;;;;-139.48;100.00;61774.03;4981286;28;20056;-70
2022/04/24 09:38:49;;;;;;;1.65;1.50;;;;;;;-139.48;100.00;61774.03;4994960;28;20054;-70
2022/04/24 09:41:33;;;;;;;4.80;2.03;;;;;;;-139.48;100.00;61774.03;4995936;28;20107;-70
2022/04/24 09:44:17;;;;;;;2.72;1.80;;;;;;;-139.48;100.00;61774.03;4994597;28;20109;-70
2022/04/24 09:47:01;;;;;;;4.38;1.85;;;;;;;-139.48;100.00;61774.03;4994869;28;20053;-70
2022/04/24 09:49:46;;;;;;;2.80;1.67;;;;;;;-139.48;100.00;61774.03;4994706;28;20044;-70
2022/04/24 09:52:31;;;;;;;3.55;2.28;;;;;;;-139.48;100.00;61774.03;4994921;28;20104;-71
2022/04/24 09:55:16;;;;;;;4.15;2.28;;;;;;;-139.48;100.00;61774.03;4994279;28;20049;-70
2022/04/24 09:58:01;;;;;;;5.32;1.88;;;;;;;-139.48;100.00;61774.03;4994632;28;20150;-70
2022/04/24 10:00:45;;;;;;;2.63;2.20;;;;;;;-139.48;100.00;61774.03;4994491;28;20045;-70
2022/04/24 10:03:29;;;;;;;2.78;2.38;;;;;;;-139.48;100.00;61774.03;4994905;28;20474;-71
2022/04/24 10:06:15;;;;;;;4.38;2.13;;;;;;;-139.48;100.00;61774.03;4994609;28;20053;-70
2022/04/24 10:09:00;;;;;;;4.40;2.58;;;;;;;-139.48;100.00;61774.03;4994481;28;20552;-70
2022/04/24 10:11:46;;;;;;;4.07;2.95;;;;;;;-139.48;100.00;61774.03;4994370;28;20050;-71
2022/04/24 10:14:31;;;;;;;4.70;2.95;;;;;;;-139.48;100.00;61774.03;4981039;28;20565;-71
2022/04/24 10:17:26;;;;;;;6.70;2.97;;;;;;;-139.48;100.00;61774.03;4994272;28;20101;-70
2022/04/24 10:20:28;;;;;;;6.57;3.75;;;;;;;-139.48;100.00;61774.03;4994204;28;20045;-70
2022/04/24 10:23:12;;;;;;;7.05;4.07;;;;;;;-139.48;100.00;61774.03;4995238;28;20049;-71
2022/04/24 10:25:56;;;;;;;4.88;4.00;;;;;;;-139.48;100.00;61774.03;4995976;28;20099;-70
2022/04/24 10:28:41;;;;;;;6.85;4.35;;;;;;;-139.48;100.00;61774.03;4995022;28;20053;-70
2022/04/24 10:31:24;;;;;;;5.57;4.18;;;;;;;-139.48;100.00;61774.03;4980119;28;20414;-70
2022/04/24 10:34:09;;;;;;;8.02;5.50;;;;;;;-139.48;100.00;61774.03;4980322;28;20521;-70
2022/04/24 10:36:58;;;;;;;8.98;4.97;;;;;;;-139.48;100.00;61774.03;4994825;28;20052;-70
2022/04/24 10:39:42;;;;;;;7.65;5.60;;;;;;;-139.48;100.00;61774.03;4994589;28;20065;-70
2022/04/24 10:42:31;;;;;;;12.45;5.55;;;;;;;-139.48;100.00;61774.03;4993868;28;20134;-70
2022/04/24 10:45:19;;;;;;;8.35;5.30;;;;;;;-139.48;100.00;61774.03;4993815;28;20133;-70
2022/04/24 10:48:13;;;;;;;8.90;5.85;;;;;;;-139.48;100.00;61774.03;4993564;28;20044;-70
2022/04/24 10:50:57;;;;;;;9.57;6.10;;;;;;;-139.48;100.00;61774.03;4979623;28;20117;-70
2022/04/24 10:53:54;;;;;;;8.73;5.80;;;;;;;-139.48;100.00;61774.03;4993502;28;20100;-70
2022/04/24 10:56:43;;;;;;;12.23;7.32;;;;;;;-139.48;100.00;61774.03;4993354;28;20045;-70
2022/04/24 10:59:43;;;;;;;11.20;7.25;;;;;;;-139.48;100.00;61774.03;4994409;28;20411;-70
2022/04/24 11:02:30;;;;;;;10.30;7.18;;;;;;;-139.48;100.00;61774.03;4993260;28;20077;-70
2022/04/24 11:05:19;;;;;;;8.75;6.50;;;;;;;-139.48;100.00;61774.03;4993212;28;20073;-70
2022/04/24 11:08:05;;;;;;;9.63;7.03;;;;;;;-139.48;100.00;61774.03;4992650;28;20101;-70
2022/04/24 11:10:50;;;;;;;9.50;6.70;;;;;;;-139.48;100.00;61774.03;4993524;28;20073;-70
2022/04/24 11:13:36;;;;;;;7.38;5.68;;;;;;;-139.48;100.00;61774.03;4993136;28;20049;-70
2022/04/24 11:16:20;;;;;;;9.20;6.63;;;;;;;-139.48;100.00;61774.03;4993340;28;20170;-70
2022/04/24 11:19:05;;;;;;;10.57;6.78;;;;;;;-139.48;100.00;61774.03;4993893;28;20057;-70
2022/04/24 11:22:10;;;;;;;11.43;7.18;;;;;;;-139.48;100.00;61774.03;4993011;28;20068;-70
2022/04/24 11:24:57;;;;;;;12.27;8.43;;;;;;;-139.48;100.00;61774.03;4993253;28;20145;-70
2022/04/24 11:27:44;;;;;;;9.43;6.82;;;;;;;-139.48;100.00;61774.03;4993222;28;20106;-70
2022/04/24 11:30:33;;;;;;;10.43;7.80;;;;;;;-139.48;100.00;61774.03;4993885;28;20049;-70
2022/04/24 11:33:17;;;;;;;11.13;7.50;;;;;;;-139.48;100.00;61774.03;4994326;28;20514;-70
2022/04/24 11:36:06;;;;;;;9.85;7.18;;;;;;;-139.48;100.00;61774.03;4992844;28;20100;-70
2022/04/24 11:38:51;;;;;;;15.70;9.00;;;;;;;-139.48;100.00;61774.03;4992996;28;20178;-70
2022/04/24 11:41:35;;;;;;;13.25;8.57;;;;;;;-139.48;100.00;61774.03;4993788;28;20053;-70
2022/04/24 11:50:25;;;;;;;9.27;6.45;;;;;;;-139.48;100.00;61774.03;4993907;28;20049;-70
2022/04/24 11:53:09;;;;;;;9.52;6.15;;;;;;;-139.48;100.00;61774.03;4994041;28;20049;-71
2022/04/24 11:56:03;;;;;;;7.47;5.93;;;;;;;-139.48;100.00;61774.03;4992686;28;20093;-70
2022/04/24 11:58:48;;;;;;;7.60;6.00;;;;;;;-139.48;100.00;61774.03;4992776;28;20053;-70
2022/04/24 12:01:32;;;;;;;8.13;5.68;;;;;;;-139.48;100.00;61774.03;4992631;28;20513;-70
2022/04/24 12:04:19;;;;;;;10.07;6.72;;;;;;;-139.48;100.00;61774.03;4993798;28;20049;-70
2022/04/24 12:07:06;;;;;;;7.28;5.57;;;;;;;-139.48;100.00;61774.03;4992894;28;20053;-70
2022/04/24 12:10:04;;;;;;;11.48;6.82;;;;;;;-139.48;100.00;61774.03;4993528;28;20097;-70
2022/04/24 12:12:50;;;;;;;8.82;7.03;;;;;;;-139.48;100.00;61774.03;4992584;28;20125;-70
2022/04/24 12:15:34;;;;;;;7.53;6.30;;;;;;;-139.48;100.00;61774.03;4992865;28;20049;-70
2022/04/24 12:18:23;;;;;;;8.73;6.60;;;;;;;-139.48;100.00;61774.03;4979354;28;20514;-70
2022/04/24 12:21:18;;;;;;;11.32;7.60;;;;;;;-139.48;100.00;61774.03;4996519;28;20053;-70
2022/04/24 12:24:02;;;;;;;8.52;6.72;;;;;;;-139.48;100.00;61774.03;4997132;28;20129;-70
2022/04/24 12:26:50;;;;;;;10.15;6.93;;;;;;;-139.48;100.00;61774.03;4996826;28;20169;-70
2022/04/24 12:29:49;;;;;;;9.43;7.00;;;;;;;-139.48;100.00;61774.03;4996248;28;20100;-70
2022/04/24 12:32:38;;;;;;;15.68;8.10;;;;;;;-139.48;100.00;61774.03;4996586;28;20144;-70